Plentywood (PWD)
Plentywood, MT
Field Elevation: 2251
Lat: 48°47.32N  Long: 104°31.39W
CTAF/Unicom Freq: 122.8000
   
     For Weather-by-Phone, call 406-765-2149
Weather Advisories
2015-04-18   19:16 Z
Altimeter 29.94" Hg
Wind 340° @ 20 KT
Gusts 28 KT
Visibility 10 SM
Temperature 12° C (54° F)
Dewpoint 3° C (37° F)
Relative Humidity 54%
Density Altitude --
Condensation Altitude 7,000 feet
Wind and Runways
Indicated Runway = 30
Headwind = 15 kt
Crosswind = 13 kt
History
 
 
 
More Info
All DigiWx sites map
NOAA Forecast
 
Airport IQ 5010
(S59) Libby
(6S5) Ravalli County
 
about DigiWx
 
FAA Disclaimer: The data displayed is for advisory purposes only and is not to be used for flight planning or operations. For official data, please call 406-765-2149 to hear the current automated AWOS voice message.
  METAR PWD 181916Z AUTO 34020G28KT VIS 10 SM 12/03 A2994